createdAt,value
2022-12-09T00:01:13.202Z,7.93
2022-12-09T00:03:43.948Z,6.83
2022-12-09T00:06:16.675Z,7.40
2022-12-09T00:08:45.135Z,6.93
2022-12-09T00:11:14.703Z,7.17
2022-12-09T00:13:42.792Z,6.40
2022-12-09T00:16:13.348Z,7.23
2022-12-09T00:18:41.740Z,5.60
2022-12-09T00:21:14.544Z,5.67
2022-12-09T00:23:42.893Z,6.27
2022-12-09T00:26:11.229Z,7.13
2022-12-09T00:28:41.018Z,5.77
2022-12-09T00:31:09.767Z,5.53
2022-12-09T00:33:37.744Z,5.23
2022-12-09T00:36:14.480Z,6.90
2022-12-09T00:38:43.384Z,7.57
2022-12-09T00:41:12.177Z,7.50
2022-12-09T00:43:42.391Z,6.10
2022-12-09T00:46:11.200Z,7.83
2022-12-09T00:48:39.660Z,5.63
2022-12-09T00:51:08.842Z,5.80
2022-12-09T00:53:36.762Z,6.33
2022-12-09T00:56:04.825Z,6.53
2022-12-09T00:58:35.858Z,6.60
2022-12-09T01:01:05.394Z,5.77
2022-12-09T01:03:33.879Z,5.93
2022-12-09T01:06:02.160Z,6.43
2022-12-09T01:08:32.762Z,7.00
2022-12-09T01:11:01.107Z,6.63
2022-12-09T01:13:29.123Z,6.70
2022-12-09T01:15:57.231Z,5.87
2022-12-09T01:18:26.901Z,7.10
2022-12-09T01:20:58.286Z,6.50
2022-12-09T01:23:26.754Z,6.43
2022-12-09T01:25:54.784Z,5.77
2022-12-09T01:28:22.564Z,6.90
2022-12-09T01:30:50.844Z,6.10
2022-12-09T01:33:18.761Z,6.00
2022-12-09T01:35:48.049Z,6.23
2022-12-09T01:38:17.281Z,7.10
2022-12-09T01:40:47.735Z,6.20
2022-12-09T01:43:19.127Z,7.27
2022-12-09T01:45:47.871Z,5.90
2022-12-09T01:48:19.510Z,6.00
2022-12-09T01:50:53.722Z,6.73
2022-12-09T01:53:26.191Z,6.43
2022-12-09T01:55:59.382Z,6.20
2022-12-09T01:58:29.786Z,7.27
2022-12-09T02:00:57.892Z,6.23
2022-12-09T02:03:25.947Z,6.10
2022-12-09T02:05:55.243Z,5.23
2022-12-09T02:08:23.535Z,5.53
2022-12-09T02:11:06.301Z,6.97
2022-12-09T02:13:48.472Z,7.20
2022-12-09T02:16:21.007Z,7.37
2022-12-09T02:18:54.556Z,7.30
2022-12-09T02:21:29.755Z,7.20
2022-12-09T02:24:04.756Z,6.80
2022-12-09T02:26:42.798Z,6.87
2022-12-09T02:29:37.360Z,5.97
2022-12-09T02:32:43.928Z,5.60
2022-12-09T02:35:24.491Z,5.97
2022-12-09T02:37:59.553Z,6.43
2022-12-09T02:40:34.881Z,6.37
2022-12-09T02:43:07.212Z,6.50
2022-12-09T02:45:38.297Z,7.20
2022-12-09T02:48:07.992Z,7.70
2022-12-09T02:50:39.522Z,7.80
2022-12-09T02:53:11.905Z,6.60
2022-12-09T02:55:44.020Z,7.13
2022-12-09T02:58:12.450Z,7.87
2022-12-09T03:00:41.834Z,6.00
2022-12-09T03:03:16.639Z,6.27
2022-12-09T03:05:52.065Z,7.20
2022-12-09T03:08:29.834Z,6.87
2022-12-09T03:11:01.222Z,6.47
2022-12-09T03:13:43.327Z,6.50
2022-12-09T03:16:18.430Z,6.33
2022-12-09T03:18:50.006Z,7.50
2022-12-09T03:21:23.654Z,6.57
2022-12-09T03:23:54.245Z,6.47
2022-12-09T03:26:23.485Z,7.87
2022-12-09T03:28:54.607Z,6.40
2022-12-09T03:31:28.155Z,6.87
2022-12-09T03:34:03.984Z,5.30
2022-12-09T03:36:37.268Z,5.73
2022-12-09T03:39:09.734Z,5.57
2022-12-09T03:41:42.906Z,6.50
2022-12-09T03:44:17.924Z,6.57
2022-12-09T03:46:47.002Z,6.23
2022-12-09T03:49:15.955Z,6.40
2022-12-09T03:51:49.111Z,6.63
2022-12-09T03:54:23.175Z,5.90
2022-12-09T03:56:54.945Z,6.40
2022-12-09T03:59:24.965Z,5.03
2022-12-09T04:01:53.772Z,6.53
2022-12-09T04:04:22.673Z,5.87
2022-12-09T04:06:54.378Z,5.83
2022-12-09T04:09:23.125Z,5.03
2022-12-09T04:11:51.103Z,5.40
2022-12-09T04:14:19.343Z,5.27
2022-12-09T04:16:47.488Z,5.80
2022-12-09T04:19:15.640Z,6.63
2022-12-09T04:21:44.046Z,6.43
2022-12-09T04:24:13.615Z,6.27
2022-12-09T04:26:41.399Z,6.13
2022-12-09T04:29:10.701Z,6.03
2022-12-09T04:31:38.871Z,5.83
2022-12-09T04:34:09.609Z,6.77
2022-12-09T04:36:39.053Z,6.07
2022-12-09T04:39:07.538Z,6.73
2022-12-09T04:41:37.540Z,6.70
2022-12-09T04:44:05.891Z,5.80
2022-12-09T04:46:34.162Z,5.47
2022-12-09T04:49:02.218Z,5.90
2022-12-09T04:51:35.770Z,5.83
2022-12-09T04:54:07.693Z,6.03
2022-12-09T04:56:36.901Z,7.13
2022-12-09T04:59:06.270Z,6.73
2022-12-09T05:01:37.151Z,7.07
2022-12-09T05:04:05.640Z,7.37
2022-12-09T05:06:33.810Z,6.57
2022-12-09T05:09:04.673Z,6.13
2022-12-09T05:11:33.851Z,6.37
2022-12-09T05:14:03.683Z,5.47
2022-12-09T05:16:31.824Z,5.80
2022-12-09T05:19:01.439Z,6.93
2022-12-09T05:21:30.052Z,5.27
2022-12-09T05:23:59.573Z,6.97
2022-12-09T05:26:27.753Z,7.27
2022-12-09T05:28:56.065Z,5.30
2022-12-09T05:31:25.502Z,5.53
2022-12-09T05:33:54.133Z,6.93
2022-12-09T05:36:25.301Z,8.53
2022-12-09T05:38:54.048Z,7.00
2022-12-09T05:41:23.086Z,7.17
2022-12-09T05:43:54.144Z,7.03
2022-12-09T05:46:22.908Z,6.67
2022-12-09T05:48:52.634Z,6.50
2022-12-09T05:51:25.431Z,7.00
2022-12-09T05:53:54.095Z,7.13
2022-12-09T05:56:24.350Z,5.83
2022-12-09T05:58:54.730Z,5.57
2022-12-09T06:01:23.762Z,6.83
2022-12-09T06:03:55.354Z,7.33
2022-12-09T06:06:26.725Z,7.37
2022-12-09T06:08:57.374Z,6.93
2022-12-09T06:11:26.892Z,5.97
2022-12-09T06:14:00.338Z,7.27
2022-12-09T06:16:30.781Z,7.50
2022-12-09T06:19:00.791Z,7.20
2022-12-09T06:21:29.183Z,7.07
2022-12-09T06:23:57.446Z,6.80
2022-12-09T06:26:27.802Z,6.80
2022-12-09T06:28:57.715Z,6.07
2022-12-09T06:31:26.037Z,7.27
2022-12-09T06:33:56.526Z,6.63
2022-12-09T06:36:28.055Z,6.30
2022-12-09T06:39:04.529Z,6.13
2022-12-09T06:41:33.965Z,5.90
2022-12-09T06:44:02.016Z,6.80
2022-12-09T06:46:30.500Z,7.47
2022-12-09T06:48:58.575Z,5.43
2022-12-09T06:51:28.175Z,6.47
2022-12-09T06:53:56.678Z,6.20
2022-12-09T06:56:27.674Z,5.93
2022-12-09T06:58:56.082Z,7.47
2022-12-09T07:01:26.237Z,5.00
2022-12-09T07:03:58.180Z,5.20
2022-12-09T07:06:29.852Z,6.07
2022-12-09T07:09:01.004Z,8.33
2022-12-09T07:11:29.667Z,8.37
2022-12-09T07:13:58.309Z,7.80
2022-12-09T07:16:26.836Z,7.60
2022-12-09T07:18:55.641Z,8.03
2022-12-09T07:21:25.716Z,7.33
2022-12-09T07:23:55.420Z,7.13
2022-12-09T07:26:25.671Z,8.67
2022-12-09T07:28:53.756Z,7.90
2022-12-09T07:31:23.462Z,8.47
2022-12-09T07:33:52.867Z,8.37
2022-12-09T07:36:22.493Z,9.17
2022-12-09T07:38:51.069Z,11.23
2022-12-09T07:41:20.927Z,8.70
2022-12-09T07:43:51.649Z,8.17
2022-12-09T07:46:21.746Z,7.27
2022-12-09T07:48:51.047Z,8.27
2022-12-09T07:51:19.336Z,9.97
2022-12-09T07:53:48.737Z,9.73
2022-12-09T07:56:18.565Z,8.03
2022-12-09T07:58:49.057Z,12.37
2022-12-09T08:01:19.017Z,9.23
2022-12-09T08:03:48.534Z,9.80
2022-12-09T08:06:19.278Z,11.07
2022-12-09T08:08:47.650Z,10.17
2022-12-09T08:11:18.104Z,8.07
2022-12-09T08:13:48.239Z,7.77
2022-12-09T08:16:19.751Z,8.97
2022-12-09T08:18:48.106Z,7.50
2022-12-09T08:21:21.246Z,7.77
2022-12-09T08:23:50.081Z,10.13
2022-12-09T08:26:21.405Z,8.20
2022-12-09T08:28:51.646Z,9.90
2022-12-09T08:31:24.758Z,8.43
2022-12-09T08:33:55.130Z,7.73
2022-12-09T08:36:26.424Z,9.10
2022-12-09T08:38:55.275Z,9.27
2022-12-09T08:41:35.431Z,9.17
2022-12-09T08:44:07.369Z,9.77
2022-12-09T08:46:37.344Z,9.00
2022-12-09T08:49:06.336Z,9.67
2022-12-09T08:51:35.012Z,9.47
2022-12-09T08:54:06.944Z,10.50
2022-12-09T08:56:35.253Z,10.10
2022-12-09T08:59:05.159Z,9.40
2022-12-09T09:01:35.910Z,10.30
2022-12-09T09:04:07.555Z,10.20
2022-12-09T09:06:36.315Z,9.87
2022-12-09T09:09:05.737Z,9.00
2022-12-09T09:11:34.404Z,9.47
2022-12-09T09:14:06.675Z,8.67
2022-12-09T09:16:39.787Z,10.07
2022-12-09T09:19:08.136Z,10.27
2022-12-09T09:21:36.989Z,11.13
2022-12-09T09:24:10.443Z,9.30
2022-12-09T09:26:41.569Z,10.03
2022-12-09T09:29:12.661Z,8.27
2022-12-09T09:31:40.979Z,9.80
2022-12-09T09:34:09.246Z,9.00
2022-12-09T09:36:37.715Z,9.10
2022-12-09T09:39:06.125Z,9.93
2022-12-09T09:41:45.462Z,8.87
2022-12-09T09:44:23.267Z,9.10
2022-12-09T09:46:52.785Z,10.63
2022-12-09T09:49:30.976Z,9.30
2022-12-09T09:51:59.842Z,10.27
2022-12-09T09:54:28.068Z,9.33
2022-12-09T09:57:02.106Z,8.73
2022-12-09T09:59:42.011Z,9.47
2022-12-09T10:02:19.628Z,8.33
2022-12-09T10:05:04.688Z,9.10
2022-12-09T10:07:40.131Z,10.23
2022-12-09T10:10:22.981Z,8.57
2022-12-09T10:13:09.466Z,9.77
2022-12-09T10:15:50.556Z,9.83
2022-12-09T10:18:28.163Z,10.80
2022-12-09T10:20:57.274Z,10.00
2022-12-09T10:23:27.103Z,10.23
2022-12-09T10:25:59.567Z,10.03
2022-12-09T10:28:31.989Z,10.57
2022-12-09T10:31:01.770Z,10.40
2022-12-09T10:33:31.652Z,9.60
2022-12-09T10:36:00.795Z,10.87
2022-12-09T10:38:31.100Z,11.27
2022-12-09T10:41:03.733Z,11.10
2022-12-09T10:43:36.301Z,10.07
2022-12-09T10:46:18.064Z,9.30
2022-12-09T10:48:54.073Z,9.30
2022-12-09T10:51:25.827Z,10.40
2022-12-09T10:53:57.659Z,10.13
2022-12-09T10:56:29.167Z,10.20
2022-12-09T10:59:11.433Z,10.43
2022-12-09T11:01:51.913Z,11.17
2022-12-09T11:04:26.420Z,11.43
2022-12-09T11:06:59.789Z,12.17
2022-12-09T11:09:30.977Z,10.53
2022-12-09T11:12:00.419Z,10.50
2022-12-09T11:14:33.459Z,10.20
2022-12-09T11:17:16.988Z,10.50
2022-12-09T11:19:49.102Z,11.87
2022-12-09T11:22:39.129Z,12.23
2022-12-09T11:25:20.208Z,11.67
2022-12-09T11:27:52.281Z,9.87
2022-12-09T11:30:22.468Z,10.57
2022-12-09T11:32:58.760Z,10.47
2022-12-09T11:35:32.277Z,10.10
2022-12-09T11:38:14.021Z,10.53
2022-12-09T11:40:44.659Z,10.37
2022-12-09T11:43:12.886Z,10.87
2022-12-09T11:45:41.747Z,11.33
2022-12-09T11:48:34.967Z,10.27
2022-12-09T11:51:07.050Z,12.53
2022-12-09T11:53:40.621Z,10.93
2022-12-09T11:56:18.943Z,12.60
2022-12-09T11:58:51.420Z,11.27
2022-12-09T12:01:26.795Z,12.80
2022-12-09T12:03:57.809Z,12.90
2022-12-09T12:06:30.008Z,11.70
2022-12-09T12:09:03.851Z,11.93
2022-12-09T12:11:39.625Z,11.43
2022-12-09T12:14:16.856Z,12.60
2022-12-09T12:16:53.736Z,11.83
2022-12-09T12:19:30.104Z,13.10
2022-12-09T12:22:27.153Z,11.43
2022-12-09T12:25:24.818Z,11.60
2022-12-09T12:28:19.094Z,11.30
2022-12-09T12:30:55.421Z,9.83
2022-12-09T12:36:40.412Z,12.90
2022-12-09T12:39:22.085Z,13.40
2022-12-09T12:41:56.972Z,11.20
2022-12-09T12:44:54.756Z,11.27
2022-12-09T12:47:26.512Z,11.90
2022-12-09T12:50:11.204Z,12.00
2022-12-09T12:52:56.175Z,10.67
2022-12-09T12:55:42.367Z,13.07
2022-12-09T12:58:18.115Z,11.93
2022-12-09T13:01:01.200Z,13.47
2022-12-09T13:03:37.302Z,11.53
2022-12-09T13:06:06.017Z,11.60
2022-12-09T13:08:42.219Z,12.77
2022-12-09T13:11:16.056Z,12.17
2022-12-09T13:13:47.712Z,12.67
2022-12-09T13:16:20.259Z,12.97
2022-12-09T13:18:50.240Z,13.20
2022-12-09T13:21:18.932Z,11.93
2022-12-09T13:24:03.264Z,12.43
2022-12-09T13:26:42.560Z,10.47
2022-12-09T13:29:23.090Z,12.80
2022-12-09T13:32:00.166Z,13.73
2022-12-09T13:34:37.578Z,11.93
2022-12-09T13:37:06.121Z,12.93
2022-12-09T13:39:59.687Z,13.93
2022-12-09T13:42:52.618Z,13.60
2022-12-09T13:45:27.853Z,12.60
2022-12-09T13:47:56.729Z,12.57
2022-12-09T13:50:27.384Z,14.37
2022-12-09T13:52:57.867Z,13.97
2022-12-09T13:55:37.537Z,12.63
2022-12-09T13:58:27.255Z,14.63
2022-12-09T14:01:17.149Z,12.53
2022-12-09T14:03:55.679Z,13.03
2022-12-09T14:06:26.585Z,14.23
2022-12-09T14:08:57.948Z,14.50
2022-12-09T14:11:52.338Z,14.60
2022-12-09T14:14:56.514Z,13.40
2022-12-09T14:17:59.070Z,14.10
2022-12-09T14:20:30.869Z,14.87
2022-12-09T14:23:19.277Z,15.53
2022-12-09T14:26:07.095Z,15.00
2022-12-09T14:28:52.131Z,15.20
2022-12-09T14:31:44.856Z,13.67
2022-12-09T14:34:27.805Z,14.77
2022-12-09T14:37:05.642Z,13.90
2022-12-09T14:39:39.357Z,13.60
2022-12-09T14:42:14.228Z,14.53
2022-12-09T14:44:52.167Z,14.50
2022-12-09T14:47:24.574Z,16.10
2022-12-09T14:49:54.915Z,14.53
2022-12-09T14:52:29.872Z,15.70
2022-12-09T14:54:59.688Z,15.57
2022-12-09T14:57:33.984Z,14.80
2022-12-09T15:00:05.685Z,15.00
2022-12-09T15:02:37.137Z,14.90
2022-12-09T15:05:17.775Z,15.00
2022-12-09T15:07:46.450Z,16.13
2022-12-09T15:10:21.475Z,15.07
2022-12-09T15:12:52.320Z,16.97
2022-12-09T15:15:24.914Z,17.10
2022-12-09T15:17:56.417Z,18.60
2022-12-09T15:20:28.584Z,17.23
2022-12-09T15:23:01.401Z,15.93
2022-12-09T15:25:29.931Z,16.60
2022-12-09T15:28:00.129Z,16.00
2022-12-09T15:30:35.822Z,14.77
2022-12-09T15:33:04.853Z,17.37
2022-12-09T15:35:34.157Z,19.23
2022-12-09T15:38:05.930Z,19.10
2022-12-09T15:40:36.812Z,18.50
2022-12-09T15:43:11.643Z,17.83
2022-12-09T15:45:44.731Z,20.60
2022-12-09T15:48:18.720Z,17.33
2022-12-09T15:50:50.837Z,18.30
2022-12-09T15:53:24.171Z,16.20
2022-12-09T15:55:57.887Z,17.80
2022-12-09T15:58:30.590Z,14.00
2022-12-09T16:01:00.233Z,15.00
2022-12-09T16:03:30.537Z,14.70
2022-12-09T16:06:02.098Z,14.83
2022-12-09T16:08:34.291Z,14.43
2022-12-09T16:11:02.771Z,15.70
2022-12-09T16:13:30.769Z,13.83
2022-12-09T16:16:01.966Z,18.10
2022-12-09T16:18:34.576Z,17.33
2022-12-09T16:21:20.973Z,13.83
2022-12-09T16:23:52.968Z,16.33
2022-12-09T16:26:28.272Z,18.67
2022-12-09T16:28:59.631Z,17.83
2022-12-09T16:31:29.550Z,16.80
2022-12-09T16:33:58.389Z,14.70
2022-12-09T16:36:29.460Z,19.33
2022-12-09T16:39:42.936Z,15.73
2022-12-09T16:42:22.811Z,19.23
2022-12-09T16:44:51.050Z,15.20
2022-12-09T16:47:24.308Z,14.73
2022-12-09T16:49:52.777Z,14.33
2022-12-09T16:52:24.300Z,18.90
2022-12-09T16:54:52.732Z,13.87
2022-12-09T16:57:21.327Z,14.33
2022-12-09T16:59:50.907Z,19.20
2022-12-09T17:02:32.996Z,19.77
2022-12-09T17:05:03.290Z,18.20
2022-12-09T17:07:31.111Z,17.07
2022-12-09T17:09:59.018Z,19.27
2022-12-09T17:12:27.033Z,25.17
2022-12-09T17:14:54.982Z,23.50
2022-12-09T17:17:24.219Z,22.37
2022-12-09T17:19:52.227Z,22.67
2022-12-09T17:22:20.140Z,19.27
2022-12-09T17:24:48.107Z,18.03
2022-12-09T17:27:18.162Z,20.73
2022-12-09T17:29:46.542Z,22.03
2022-12-09T17:32:16.490Z,20.13
2022-12-09T17:34:45.770Z,19.20
2022-12-09T17:37:13.678Z,20.27
2022-12-09T17:39:41.510Z,18.53
2022-12-09T17:42:09.337Z,20.80
2022-12-09T17:44:37.228Z,17.87
2022-12-09T17:47:09.281Z,22.43
2022-12-09T17:49:38.089Z,23.57
2022-12-09T17:52:07.345Z,21.17
2022-12-09T17:54:35.139Z,19.93
2022-12-09T17:57:02.968Z,21.30
2022-12-09T17:59:30.771Z,21.87
2022-12-09T18:01:59.428Z,23.43
2022-12-09T18:04:27.213Z,23.97
2022-12-09T18:06:54.968Z,21.13
2022-12-09T18:09:24.351Z,17.33
2022-12-09T18:11:52.476Z,19.33
2022-12-09T18:14:22.728Z,20.90
2022-12-09T18:16:50.871Z,16.30
2022-12-09T18:19:20.712Z,20.27
2022-12-09T18:21:49.327Z,18.50
2022-12-09T18:24:17.147Z,24.10
2022-12-09T18:26:46.343Z,22.80
2022-12-09T18:29:14.728Z,20.30
2022-12-09T18:31:45.476Z,20.70
2022-12-09T18:34:13.288Z,21.63
2022-12-09T18:36:43.473Z,17.83
2022-12-09T18:39:11.258Z,21.03
2022-12-09T18:41:39.038Z,21.17
2022-12-09T18:44:08.820Z,22.07
2022-12-09T18:46:38.461Z,18.30
2022-12-09T18:49:08.646Z,20.90
2022-12-09T18:51:37.242Z,21.23
2022-12-09T18:54:06.060Z,17.43
2022-12-09T18:56:34.746Z,17.30
2022-12-09T18:59:07.413Z,22.33
2022-12-09T19:01:40.326Z,16.97
2022-12-09T19:04:13.489Z,16.77
2022-12-09T19:06:42.677Z,15.87
2022-12-09T19:09:12.841Z,18.60
2022-12-09T19:11:42.135Z,21.87
2022-12-09T19:14:10.624Z,17.10
2022-12-09T19:16:40.214Z,18.77
2022-12-09T19:19:10.374Z,16.13
2022-12-09T19:21:42.408Z,15.90
2022-12-09T19:24:15.003Z,16.23
2022-12-09T19:26:45.481Z,18.70
2022-12-09T19:29:14.567Z,16.87
2022-12-09T19:31:45.327Z,19.27
2022-12-09T19:34:17.644Z,15.23
2022-12-09T19:36:46.330Z,23.03
2022-12-09T19:39:15.254Z,17.83
2022-12-09T19:41:44.483Z,19.53
2022-12-09T19:44:21.624Z,19.23
2022-12-09T19:47:03.408Z,21.20
2022-12-09T19:49:31.220Z,16.37
2022-12-09T19:52:00.000Z,18.23
2022-12-09T19:54:29.731Z,18.27
2022-12-09T19:56:59.997Z,19.57
2022-12-09T19:59:28.333Z,19.63
2022-12-09T20:01:56.465Z,19.77
2022-12-09T20:07:18.699Z,17.80
2022-12-09T20:09:46.782Z,15.93
2022-12-09T20:12:17.057Z,24.07
2022-12-09T20:14:44.891Z,22.23
2022-12-09T20:17:12.889Z,20.13
2022-12-09T20:19:42.056Z,17.90
2022-12-09T20:22:09.899Z,18.97
2022-12-09T20:24:37.738Z,19.60
2022-12-09T20:27:05.626Z,16.30
2022-12-09T20:29:37.572Z,17.00
2022-12-09T20:32:06.735Z,14.40
2022-12-09T20:34:34.889Z,15.97
2022-12-09T20:37:04.282Z,14.93
2022-12-09T20:39:32.067Z,18.63
2022-12-09T20:42:00.279Z,16.87
2022-12-09T20:44:32.301Z,16.83
2022-12-09T20:47:00.281Z,19.03
2022-12-09T20:49:29.788Z,16.50
2022-12-09T20:51:57.556Z,19.77
2022-12-09T20:54:26.806Z,18.87
2022-12-09T20:56:54.763Z,14.07
2022-12-09T20:59:22.733Z,18.03
2022-12-09T21:01:50.617Z,16.57
2022-12-09T21:04:21.586Z,17.57
2022-12-09T21:06:49.702Z,17.27
2022-12-09T21:09:21.642Z,19.00
2022-12-09T21:11:51.328Z,21.10
2022-12-09T21:14:20.129Z,24.10
2022-12-09T21:16:50.397Z,17.73
2022-12-09T21:19:25.215Z,18.13
2022-12-09T21:21:53.893Z,18.60
2022-12-09T21:24:24.629Z,16.20
2022-12-09T21:26:55.352Z,17.43
2022-12-09T21:29:29.844Z,17.00
2022-12-09T21:32:00.087Z,16.53
2022-12-09T21:34:27.934Z,17.73
2022-12-09T21:36:55.682Z,16.90
2022-12-09T21:39:23.471Z,17.60
2022-12-09T21:41:51.301Z,20.07
2022-12-09T21:44:22.191Z,17.30
2022-12-09T21:46:49.960Z,18.97
2022-12-09T21:49:17.743Z,17.17
2022-12-09T21:51:45.923Z,15.17
2022-12-09T21:54:13.673Z,19.53
2022-12-09T21:56:41.773Z,17.60
2022-12-09T21:59:11.855Z,17.87
2022-12-09T22:01:42.892Z,17.93
2022-12-09T22:04:12.961Z,16.97
2022-12-09T22:06:46.399Z,14.53
2022-12-09T22:09:14.295Z,16.87
2022-12-09T22:11:42.775Z,16.70
2022-12-09T22:14:11.426Z,17.03
2022-12-09T22:16:43.918Z,15.97
2022-12-09T22:19:17.619Z,16.13
2022-12-09T22:21:45.693Z,16.07
2022-12-09T22:24:15.676Z,15.93
2022-12-09T22:26:45.186Z,16.67
2022-12-09T22:29:14.120Z,17.87
2022-12-09T22:31:44.483Z,17.13
2022-12-09T22:34:14.892Z,16.97
2022-12-09T22:36:43.183Z,16.07
2022-12-09T22:39:13.934Z,16.90
2022-12-09T22:41:41.707Z,16.43
2022-12-09T22:44:11.407Z,15.17
2022-12-09T22:46:39.461Z,15.87
2022-12-09T22:49:09.774Z,16.53
2022-12-09T22:51:37.916Z,16.83
2022-12-09T22:54:09.259Z,14.67
2022-12-09T22:56:38.057Z,14.70
2022-12-09T22:59:06.695Z,14.40
2022-12-09T23:01:37.525Z,13.67
2022-12-09T23:04:08.944Z,14.53
2022-12-09T23:06:38.401Z,15.10
2022-12-09T23:09:07.760Z,13.37
2022-12-09T23:11:35.989Z,12.93
2022-12-09T23:14:04.134Z,15.90
2022-12-09T23:16:32.095Z,14.03
2022-12-09T23:19:00.407Z,16.43
2022-12-09T23:21:32.166Z,16.60
2022-12-09T23:24:02.241Z,18.60
2022-12-09T23:26:32.615Z,14.40
2022-12-09T23:29:01.981Z,17.60
2022-12-09T23:31:31.976Z,17.57
2022-12-09T23:34:00.755Z,16.97
2022-12-09T23:36:32.393Z,14.40
2022-12-09T23:39:01.723Z,16.63
2022-12-09T23:41:30.307Z,14.40
2022-12-09T23:43:58.495Z,18.43
2022-12-09T23:46:29.082Z,15.97
2022-12-09T23:48:58.026Z,15.13
2022-12-09T23:51:27.783Z,14.83
2022-12-09T23:53:58.851Z,17.63
2022-12-09T23:56:30.193Z,14.87
2022-12-09T23:59:00.350Z,15.70
